Time;durP1;ratioP1;P1;durP2;ratioP2;P2;SDS_P1;SDS_P2;PMS_P1;PMS_P2;Temp;Humidity;BMP_temperature;BMP_pressure;BME280_temperature;BME280_humidity;BME280_pressure;Samples;Min_cycle;Max_cycle;Signal;HPM_P1;HPM_P2
2024/03/29 01:44:25;;;;;;;3.80;2.40;;;5.20;99.90;;;5.98;100.00;96035.88;4997840;28;20472;-76
2024/03/29 01:46:53;;;;;;;4.30;1.93;;;5.20;99.90;;;6.01;100.00;96030.25;4995672;28;20467;-76
2024/03/29 01:49:20;;;;;;;3.93;2.23;;;5.20;99.90;;;6.02;100.00;96022.28;4999306;28;20851;-76
2024/03/29 01:51:48;;;;;;;4.57;2.27;;;5.20;99.90;;;6.04;100.00;96022.06;4998761;28;20475;-76
2024/03/29 01:54:16;;;;;;;4.00;2.30;;;5.20;99.90;;;5.99;100.00;96022.72;4995781;28;20534;-76
2024/03/29 01:56:44;;;;;;;3.90;1.80;;;5.20;99.90;;;6.05;100.00;96047.81;5000182;28;20544;-76
2024/03/29 01:59:16;;;;;;;4.73;2.30;;;5.20;99.90;;;6.02;100.00;96035.25;4998609;28;20477;-76
2024/03/29 02:01:46;;;;;;;4.00;1.80;;;5.30;99.90;;;6.02;100.00;96037.84;5011008;28;20492;-76
2024/03/29 02:04:13;;;;;;;4.10;2.00;;;5.20;99.90;;;6.06;100.00;96031.25;4995780;28;20549;-76
2024/03/29 02:06:40;;;;;;;4.00;2.20;;;5.30;99.90;;;6.02;100.00;96026.69;4997254;28;20523;-76
2024/03/29 02:09:07;;;;;;;2.10;1.57;;;5.40;99.90;;;6.07;100.00;96040.59;4995124;28;20466;-76
2024/03/29 02:11:36;;;;;;;5.00;1.70;;;5.30;99.90;;;6.09;100.00;96017.06;4996416;28;20462;-76
2024/03/29 02:14:05;;;;;;;2.60;1.63;;;5.40;99.90;;;6.17;100.00;96034.97;5000802;28;20457;-76
2024/03/29 02:16:34;;;;;;;3.93;2.13;;;5.40;99.90;;;6.08;100.00;96013.66;5001067;28;20464;-76
2024/03/29 02:19:02;;;;;;;3.30;2.13;;;5.30;99.90;;;6.08;100.00;96000.69;5000421;28;20497;-76
2024/03/29 02:21:29;;;;;;;1.90;1.70;;;5.30;99.90;;;6.12;100.00;96008.84;5012337;28;20496;-76
2024/03/29 02:24:07;;;;;;;6.17;2.57;;;5.30;99.90;;;6.11;100.00;96004.66;4999521;28;20472;-76
2024/03/29 02:26:36;;;;;;;6.47;2.03;;;5.30;99.90;;;6.09;100.00;96001.50;4999303;28;21007;-76
2024/03/29 02:29:04;;;;;;;4.70;1.67;;;5.30;99.90;;;6.10;100.00;96008.28;4998498;28;20902;-76
2024/03/29 02:31:31;;;;;;;1.43;1.33;;;5.40;99.90;;;6.16;100.00;96004.03;5000107;28;20869;-76
2024/03/29 02:33:59;;;;;;;3.77;3.07;;;5.30;99.90;;;6.13;100.00;96013.03;5011415;28;20825;-76
2024/03/29 02:36:26;;;;;;;4.73;2.27;;;5.30;99.90;;;6.14;100.00;96019.03;4992814;28;20460;-76
2024/03/29 02:38:54;;;;;;;3.83;1.80;;;5.30;99.90;;;6.15;100.00;96031.78;4993002;28;20502;-76
2024/03/29 02:41:25;;;;;;;2.67;1.97;;;5.30;99.90;;;6.18;100.00;96030.59;5000134;28;20680;-76
2024/03/29 02:43:53;;;;;;;3.60;1.63;;;5.40;99.90;;;6.21;100.00;96040.56;5008965;28;20575;-76
2024/03/29 02:46:19;;;;;;;4.10;2.20;;;5.40;99.90;;;6.22;100.00;96042.13;4996795;28;21163;-76
2024/03/29 02:48:46;;;;;;;3.60;1.73;;;5.40;99.90;;;6.24;100.00;96040.13;4994928;28;20489;-76
2024/03/29 02:51:13;;;;;;;3.17;1.77;;;5.40;99.90;;;6.25;100.00;96046.91;4995920;28;20544;-76
2024/03/29 02:53:40;;;;;;;2.47;1.50;;;5.40;99.90;;;6.26;100.00;96043.28;4996925;28;20984;-76
2024/03/29 02:56:07;;;;;;;3.20;1.80;;;5.40;99.90;;;6.30;100.00;96045.28;4996041;28;20468;-76
2024/03/29 02:58:36;;;;;;;2.07;1.40;;;5.40;99.90;;;6.25;100.00;96054.69;5009563;28;21102;-76
2024/03/29 03:01:07;;;;;;;4.07;1.90;;;5.40;99.90;;;6.23;100.00;96039.31;4996566;28;20457;-76
2024/03/29 03:03:36;;;;;;;2.87;1.83;;;5.50;99.90;;;6.23;100.00;96041.13;5011400;28;20470;-76
2024/03/29 03:06:03;;;;;;;5.00;1.83;;;5.40;99.90;;;6.25;100.00;96041.72;4992901;28;20871;-76
2024/03/29 03:11:24;;;;;;;3.53;1.60;;;5.30;99.90;;;6.15;100.00;96051.75;4948456;28;20480;-76
2024/03/29 03:13:53;;;;;;;4.33;1.67;;;5.30;99.90;;;6.13;100.00;96064.13;4999693;28;20519;-76
2024/03/29 03:16:21;;;;;;;4.57;1.90;;;5.30;99.90;;;6.13;100.00;96064.94;4997784;28;20465;-76
2024/03/29 03:18:47;;;;;;;2.73;1.73;;;5.30;99.90;;;6.14;100.00;96069.13;5000445;28;20509;-76
2024/03/29 03:21:15;;;;;;;2.73;1.87;;;5.30;99.90;;;6.14;100.00;96065.72;4995392;28;20502;-76
2024/03/29 03:23:41;;;;;;;2.23;1.80;;;5.30;99.90;;;6.10;100.00;96057.56;4998947;28;20468;-76
2024/03/29 03:26:09;;;;;;;5.07;2.07;;;5.20;99.90;;;6.16;100.00;96059.31;5003386;28;20503;-76
2024/03/29 03:28:35;;;;;;;2.80;1.97;;;5.40;99.90;;;6.18;100.00;96059.91;4999432;28;21061;-76
2024/03/29 03:31:04;;;;;;;2.20;1.60;;;5.40;99.90;;;6.21;100.00;96062.09;4995263;28;21036;-76
2024/03/29 03:33:31;;;;;;;2.00;1.67;;;5.50;99.90;;;6.21;100.00;96051.72;4995761;28;20467;-76
2024/03/29 03:35:58;;;;;;;3.87;1.47;;;5.40;99.90;;;6.24;100.00;96053.91;4993833;28;20840;-76
2024/03/29 03:38:25;;;;;;;6.00;1.80;;;5.40;99.90;;;6.28;100.00;96055.03;4994267;28;20496;-76
2024/03/29 03:40:52;;;;;;;6.50;2.13;;;5.40;99.90;;;6.28;100.00;96044.66;5000048;28;20490;-76
2024/03/29 03:43:19;;;;;;;6.43;2.33;;;5.50;99.90;;;6.33;100.00;96050.03;5002657;28;20470;-76
2024/03/29 03:45:47;;;;;;;3.23;1.80;;;5.50;99.90;;;6.33;100.00;96055.22;4998987;28;20466;-76
2024/03/29 03:48:15;;;;;;;3.67;1.57;;;5.40;99.90;;;6.31;100.00;96059.84;5004273;28;20473;-76
2024/03/29 03:50:43;;;;;;;1.93;1.60;;;5.50;99.90;;;6.27;100.00;96052.69;5002044;28;20476;-76
2024/03/29 03:53:09;;;;;;;2.90;2.00;;;5.40;99.90;;;6.30;100.00;96044.47;5018403;28;20536;-76
2024/03/29 03:55:37;;;;;;;6.03;1.90;;;5.50;99.90;;;6.28;100.00;96036.88;5005462;28;20470;-76
2024/03/29 03:58:04;;;;;;;5.10;1.70;;;5.40;99.90;;;6.31;100.00;96033.91;5002397;28;21848;-76
2024/03/29 04:00:32;;;;;;;3.10;1.80;;;5.50;99.90;;;6.33;100.00;96024.09;5006749;28;20466;-76
2024/03/29 04:02:58;;;;;;;3.17;1.60;;;5.50;99.90;;;6.35;100.00;96034.28;5003732;28;20447;-76
2024/03/29 04:05:27;;;;;;;5.00;2.07;;;5.60;99.90;;;6.35;100.00;96027.25;5001004;28;20477;-76
2024/03/29 04:07:54;;;;;;;7.53;1.50;;;5.50;99.90;;;6.33;100.00;96024.09;5000127;28;21050;-76
2024/03/29 04:10:21;;;;;;;2.77;1.77;;;5.40;99.90;;;6.36;100.00;96022.88;5000686;28;20469;-76
2024/03/29 04:12:47;;;;;;;4.13;1.93;;;5.50;99.90;;;6.36;100.00;96015.88;5004688;28;20477;-76
2024/03/29 04:15:15;;;;;;;4.57;1.83;;;5.50;99.90;;;6.36;100.00;96015.88;5000688;28;20488;-76
2024/03/29 04:17:41;;;;;;;2.33;1.70;;;5.50;99.90;;;6.30;100.00;96023.72;5002282;28;21116;-76
2024/03/29 04:20:10;;;;;;;7.70;1.83;;;5.40;99.90;;;6.31;100.00;96020.13;5003217;28;20494;-76
2024/03/29 04:22:38;;;;;;;4.77;1.83;;;5.40;99.90;;;6.30;100.00;96014.13;5000356;28;20975;-76
2024/03/29 04:25:06;;;;;;;9.30;2.87;;;5.40;99.90;;;6.27;100.00;96014.56;4994657;28;20941;-76
2024/03/29 04:27:32;;;;;;;2.50;2.03;;;5.40;99.90;;;6.33;100.00;96018.09;4996457;28;20481;-76
2024/03/29 04:30:00;;;;;;;3.97;2.00;;;5.50;99.90;;;6.36;100.00;96013.28;4998692;28;20470;-76
2024/03/29 04:32:27;;;;;;;2.60;1.70;;;5.50;99.90;;;6.32;100.00;96009.50;5002064;28;20469;-76
2024/03/29 04:34:55;;;;;;;4.70;1.93;;;5.50;99.90;;;6.26;100.00;96005.16;4996978;28;20466;-79
2024/03/29 04:37:23;;;;;;;5.83;2.17;;;5.50;99.90;;;6.32;100.00;96006.13;4997096;28;20556;-76
2024/03/29 04:39:52;;;;;;;3.03;1.80;;;5.50;99.90;;;6.33;100.00;96003.31;4999818;28;20536;-76
2024/03/29 04:42:19;;;;;;;4.90;1.83;;;5.50;99.90;;;6.32;100.00;96017.28;4996840;28;20479;-76
2024/03/29 04:44:47;;;;;;;3.83;1.43;;;5.50;99.90;;;6.30;100.00;96019.31;4991163;28;20855;-76
2024/03/29 04:47:15;;;;;;;3.00;1.60;;;5.50;99.90;;;6.37;100.00;96020.06;5008895;28;20471;-77
2024/03/29 04:49:42;;;;;;;3.23;1.50;;;5.50;99.90;;;6.36;100.00;96008.09;4994865;28;20461;-78
2024/03/29 04:52:09;;;;;;;5.33;1.77;;;5.50;99.90;;;6.38;100.00;96000.09;4990562;28;20471;-78
2024/03/29 04:54:37;;;;;;;3.00;1.60;;;5.50;99.90;;;6.39;100.00;96012.06;4991231;28;20476;-78
2024/03/29 04:57:06;;;;;;;4.43;1.70;;;5.50;99.90;;;6.41;100.00;96010.06;4996320;28;20474;-78
2024/03/29 04:59:34;;;;;;;2.37;1.73;;;5.60;99.90;;;6.41;100.00;96008.25;4995559;28;20508;-77
2024/03/29 05:02:02;;;;;;;3.47;1.80;;;5.60;99.90;;;6.46;100.00;96003.22;5002288;28;20894;-78
2024/03/29 05:04:30;;;;;;;4.10;1.97;;;5.60;99.90;;;6.48;100.00;95996.03;5000652;28;20972;-77
2024/03/29 05:06:59;;;;;;;2.77;1.63;;;5.70;99.90;;;6.49;100.00;96002.03;4997632;28;20474;-78
2024/03/29 05:09:27;;;;;;;3.40;2.10;;;5.60;99.90;;;6.42;100.00;96009.06;4995733;28;21040;-78
2024/03/29 05:11:55;;;;;;;1.80;1.40;;;5.50;99.90;;;6.43;100.00;96002.84;4996345;28;20474;-78
2024/03/29 05:14:24;;;;;;;2.50;1.40;;;5.50;99.90;;;6.43;100.00;96008.84;5001992;28;20477;-78
2024/03/29 05:16:52;;;;;;;3.20;1.77;;;5.60;99.90;;;6.48;100.00;96011.59;5001799;28;20468;-78
2024/03/29 05:19:20;;;;;;;4.13;1.43;;;5.60;99.90;;;6.50;100.00;96011.38;4999055;28;20516;-77
2024/03/29 05:21:47;;;;;;;3.43;1.73;;;5.60;99.90;;;6.49;100.00;96010.56;5001215;28;20896;-78
2024/03/29 05:24:15;;;;;;;5.00;1.60;;;5.60;99.90;;;6.53;100.00;96003.97;4996792;28;20478;-78
2024/03/29 05:26:42;;;;;;;1.63;1.40;;;5.70;99.90;;;6.54;100.00;96005.56;5001298;28;20474;-78
2024/03/29 05:29:10;;;;;;;3.80;1.97;;;5.70;99.90;;;6.54;100.00;96021.13;4995865;28;20477;-85
2024/03/29 05:31:39;;;;;;;3.13;1.80;;;5.70;99.90;;;6.57;100.00;96014.72;5011579;28;20462;-78
2024/03/29 05:34:06;;;;;;;2.57;1.53;;;5.70;99.90;;;6.54;100.00;96013.34;4997212;28;20859;-78
2024/03/29 05:36:35;;;;;;;3.73;1.67;;;5.60;99.90;;;6.56;100.00;96019.13;4999951;28;20477;-78
2024/03/29 05:39:06;;;;;;;7.67;2.50;;;5.70;99.90;;;6.55;100.00;96022.75;5012216;28;20896;-78
2024/03/29 05:41:33;;;;;;;3.40;1.87;;;5.70;99.90;;;6.54;100.00;96038.50;4994887;28;20474;-78
2024/03/29 05:44:05;;;;;;;2.13;1.40;;;5.70;99.90;;;6.55;100.00;96046.09;4997616;28;20472;-78
2024/03/29 05:46:33;;;;;;;4.20;1.50;;;5.70;99.90;;;6.59;100.00;96046.47;4997779;28;20551;-78
2024/03/29 05:49:01;;;;;;;3.83;1.40;;;5.80;99.90;;;6.61;100.00;96044.44;5011622;28;20527;-78
2024/03/29 05:51:29;;;;;;;4.17;1.87;;;5.90;99.90;;;6.64;100.00;96044.03;4997218;28;20473;-78
2024/03/29 05:53:57;;;;;;;1.90;1.67;;;5.90;99.90;;;6.68;100.00;96054.78;4993729;28;20467;-78
2024/03/29 05:56:25;;;;;;;1.47;1.20;;;5.80;99.90;;;6.72;100.00;96050.75;5000635;28;20451;-78
2024/03/29 05:58:52;;;;;;;1.50;1.37;;;5.90;99.90;;;6.75;100.00;96056.31;4998169;28;20506;-77
2024/03/29 06:01:20;;;;;;;5.10;1.60;;;5.90;99.90;;;6.71;100.00;96059.56;4993817;28;20463;-78
2024/03/29 06:03:47;;;;;;;2.80;1.57;;;5.80;99.90;;;6.70;100.00;96056.16;5011565;28;20970;-78
2024/03/29 06:06:21;;;;;;;3.90;1.47;;;5.80;99.90;;;6.68;100.00;96055.59;4998999;28;20482;-78
2024/03/29 06:08:49;;;;;;;2.23;1.90;;;5.80;99.90;;;6.73;100.00;96062.75;4993523;28;20469;-78
2024/03/29 06:11:17;;;;;;;2.67;1.40;;;5.80;99.90;;;6.76;100.00;96060.53;4998764;28;20662;-78
2024/03/29 06:19:16;;;;;;;2.80;1.60;;;5.90;99.90;;;6.71;100.00;96056.94;4996268;28;20489;-78
2024/03/29 06:21:45;;;;;;;3.83;1.90;;;5.90;99.90;;;6.75;100.00;96063.31;4994308;28;20552;-78
2024/03/29 06:24:14;;;;;;;3.00;1.30;;;5.90;99.90;;;6.72;100.00;96061.94;5000380;28;20502;-78
2024/03/29 06:26:42;;;;;;;2.90;1.40;;;5.80;99.90;;;6.78;100.00;96068.88;4997672;28;20481;-78
2024/03/29 06:29:10;;;;;;;3.67;1.70;;;5.90;99.90;;;6.81;100.00;96072.84;4994644;28;20467;-78
2024/03/29 06:31:38;;;;;;;3.50;1.70;;;5.90;99.90;;;6.85;100.00;96080.03;4999384;28;20726;-78
2024/03/29 06:34:07;;;;;;;3.17;1.67;;;6.00;99.90;;;6.88;100.00;96071.00;4996508;28;20466;-78
2024/03/29 06:36:35;;;;;;;3.90;1.90;;;6.10;99.90;;;6.93;100.00;96071.16;4985537;28;20769;-81
2024/03/29 06:39:04;;;;;;;4.43;1.70;;;6.10;99.90;;;6.95;100.00;96069.94;5004994;28;20498;-78
2024/03/29 06:41:32;;;;;;;8.10;2.30;;;6.10;99.90;;;6.92;100.00;96077.38;4994340;28;20864;-77
2024/03/29 06:43:59;;;;;;;2.80;1.20;;;6.10;99.90;;;6.92;100.00;96074.78;4990842;28;20478;-78
2024/03/29 06:46:27;;;;;;;2.80;1.70;;;6.10;99.90;;;6.95;100.00;96084.72;4992669;28;20499;-78
2024/03/29 06:48:55;;;;;;;2.73;1.57;;;6.10;99.90;;;6.99;100.00;96085.91;4992215;28;20465;-78
2024/03/29 06:51:23;;;;;;;2.97;1.50;;;6.10;99.90;;;7.04;100.00;96088.69;4994789;28;20505;-79
2024/03/29 06:53:50;;;;;;;4.87;1.60;;;6.10;99.90;;;7.07;100.00;96088.25;4996124;28;20496;-78
2024/03/29 06:56:19;;;;;;;2.23;1.50;;;6.20;99.90;;;7.09;100.00;96086.22;4995077;28;20519;-78
2024/03/29 06:58:47;;;;;;;1.77;1.60;;;6.20;99.90;;;7.14;100.00;96086.38;5011447;28;20486;-78
2024/03/29 07:01:14;;;;;;;4.70;1.90;;;6.30;99.90;;;7.17;100.00;96087.75;4994830;28;20532;-78
2024/03/29 07:03:42;;;;;;;2.83;1.60;;;6.30;99.90;;;7.18;100.00;96087.56;4988934;28;20537;-78
2024/03/29 07:06:09;;;;;;;3.20;1.53;;;6.30;99.90;;;7.18;100.00;96087.56;4995066;28;20842;-79
2024/03/29 07:08:36;;;;;;;10.13;1.70;;;6.30;99.90;;;7.21;100.00;96089.72;4996561;28;20481;-78
2024/03/29 07:11:04;;;;;;;1.97;1.57;;;6.30;99.90;;;7.22;100.00;96077.53;4995839;28;20463;-79
2024/03/29 07:13:34;;;;;;;2.80;1.60;;;6.30;99.90;;;7.25;100.00;96074.50;4996086;28;20472;-79
2024/03/29 07:16:02;;;;;;;3.80;2.40;;;6.40;99.90;;;7.28;100.00;96074.84;4991186;28;20470;-78
2024/03/29 07:18:30;;;;;;;4.60;1.40;;;6.40;99.90;;;7.33;100.00;96076.78;4986930;28;21004;-78
2024/03/29 07:20:57;;;;;;;1.67;1.43;;;6.40;99.90;;;7.31;100.00;96074.41;4994712;28;20502;-78
2024/03/29 07:23:25;;;;;;;1.60;1.50;;;6.40;99.90;;;7.36;100.00;96071.16;4995339;28;21166;-78
2024/03/29 07:26:00;;;;;;;1.43;1.20;;;6.50;99.90;;;7.41;100.00;96064.31;4999422;28;20471;-77
2024/03/29 07:28:28;;;;;;;2.07;1.73;;;6.50;99.90;;;7.46;100.00;96063.69;4996399;28;20470;-79
2024/03/29 07:30:58;;;;;;;2.03;1.40;;;6.60;99.90;;;7.48;100.00;96067.66;5008667;28;20478;-78
2024/03/29 07:33:27;;;;;;;2.37;1.70;;;6.50;99.90;;;7.52;100.00;96066.22;4998427;28;20471;-78
2024/03/29 07:35:55;;;;;;;2.30;1.63;;;6.70;99.90;;;7.56;100.00;96062.16;4995685;28;20557;-77
2024/03/29 07:38:23;;;;;;;3.03;1.90;;;6.70;99.90;;;7.60;100.00;96059.94;4997558;28;20495;-78
2024/03/29 07:40:51;;;;;;;4.17;1.63;;;6.80;99.90;;;7.59;100.00;96061.72;4991018;28;20479;-78
2024/03/29 07:43:19;;;;;;;2.50;1.97;;;6.80;99.90;;;7.63;100.00;96048.28;4994494;28;20509;-78
2024/03/29 07:45:47;;;;;;;2.87;1.70;;;6.80;99.90;;;7.67;100.00;96052.03;4997142;28;20710;-78
2024/03/29 07:48:18;;;;;;;5.23;2.20;;;6.90;99.90;;;7.70;100.00;96051.59;4997234;28;20470;-79
2024/03/29 07:50:47;;;;;;;2.90;1.63;;;6.90;99.90;;;7.74;100.00;96068.38;4994456;28;20975;-78
2024/03/29 07:53:14;;;;;;;6.00;1.67;;;6.90;99.90;;;7.77;100.00;96060.13;5000079;28;20471;-78
2024/03/29 07:55:42;;;;;;;4.63;2.00;;;7.00;99.90;;;7.81;100.00;96064.66;4997194;28;20470;-84
2024/03/29 07:58:10;;;;;;;4.70;2.80;;;7.10;99.90;;;7.84;100.00;96063.44;4994967;28;20482;-79
2024/03/29 08:00:42;;;;;;;4.63;2.17;;;7.10;99.90;;;7.88;100.00;96064.59;4999251;28;20471;-78
2024/03/29 08:03:10;;;;;;;2.40;1.93;;;7.10;99.90;;;7.88;100.00;96070.56;5016865;28;20474;-78
2024/03/29 08:05:40;;;;;;;4.63;2.50;;;7.10;99.90;;;7.92;100.00;96081.34;5001542;28;20896;-78
2024/03/29 08:08:08;;;;;;;4.63;2.13;;;7.20;99.90;;;7.93;100.00;96077.75;5003713;28;20473;-79
2024/03/29 08:10:35;;;;;;;8.53;2.27;;;7.20;99.90;;;7.97;100.00;96084.09;5003466;28;20964;-79
2024/03/29 08:13:03;;;;;;;2.10;1.90;;;7.20;99.90;;;7.98;100.00;96083.88;5018145;28;20483;-78
2024/03/29 08:15:30;;;;;;;2.57;2.07;;;7.20;99.90;;;8.03;100.00;96091.03;5007398;28;20473;-78
2024/03/29 08:17:58;;;;;;;5.77;3.13;;;7.20;99.90;;;8.08;100.00;96085.97;5000786;28;20453;-79
2024/03/29 08:20:29;;;;;;;2.10;1.90;;;7.20;99.90;;;8.10;100.00;96083.94;5004441;28;20515;-78
2024/03/29 08:23:00;;;;;;;3.77;2.43;;;7.30;99.90;;;8.14;100.00;96086.88;4999888;28;20459;-78
2024/03/29 08:25:28;;;;;;;2.40;1.77;;;7.30;99.90;;;8.17;100.00;96086.44;5000656;28;20467;-78
2024/03/29 08:27:58;;;;;;;3.40;2.10;;;7.30;99.90;;;8.22;100.00;96102.22;5003029;28;20548;-78
2024/03/29 08:30:28;;;;;;;9.70;2.90;;;7.40;99.90;;;8.27;100.00;96102.34;5002486;28;20456;-78
2024/03/29 08:32:59;;;;;;;3.60;1.90;;;7.40;99.90;;;8.31;100.00;96100.91;4999094;28;20480;-78
2024/03/29 08:35:27;;;;;;;3.27;2.03;;;7.50;99.90;;;8.36;100.00;96103.66;5000287;28;20468;-78
2024/03/29 08:37:54;;;;;;;3.93;2.77;;;7.50;99.90;;;8.37;100.00;96100.81;4998500;28;20487;-78
2024/03/29 08:40:24;;;;;;;3.70;2.50;;;7.40;99.90;;;8.42;100.00;96103.56;5001081;28;20500;-78
2024/03/29 08:42:51;;;;;;;8.23;3.80;;;7.60;99.90;;;8.42;100.00;96097.56;4992981;28;20492;-78
2024/03/29 08:45:20;;;;;;;4.87;3.10;;;7.40;99.90;;;8.44;100.00;96106.75;4988855;28;20562;-79
2024/03/29 08:47:48;;;;;;;6.90;3.40;;;7.60;99.90;;;8.47;100.00;96106.28;4992502;28;20470;-79
2024/03/29 08:50:16;;;;;;;5.20;3.17;;;7.60;99.90;;;8.52;100.00;96116.06;4992824;28;20548;-81
2024/03/29 08:52:44;;;;;;;5.53;2.60;;;7.60;99.90;;;8.52;100.00;96110.84;4996227;28;20474;-78
2024/03/29 08:55:11;;;;;;;5.83;3.23;;;7.70;99.90;;;8.55;100.00;96120.81;4987580;28;20480;-78
2024/03/29 08:57:40;;;;;;;2.87;2.57;;;7.70;99.90;;;8.58;100.00;96125.59;4988218;28;20646;-78
2024/03/29 09:00:10;;;;;;;3.13;2.20;;;7.70;99.90;;;8.64;100.00;96122.09;4990896;28;20490;-78
2024/03/29 09:02:37;;;;;;;4.93;1.77;;;7.90;99.90;;;8.68;100.00;96120.63;4993408;28;20466;-78
2024/03/29 09:05:06;;;;;;;2.50;1.80;;;7.90;99.90;;;8.75;100.00;96125.75;4990694;28;20478;-78
2024/03/29 09:07:33;;;;;;;4.10;2.33;;;7.90;99.90;;;8.79;100.00;96121.69;4989937;28;20838;-77
2024/03/29 09:10:01;;;;;;;2.60;1.90;;;8.00;99.90;;;8.84;100.00;96134.84;4994539;28;20477;-77
2024/03/29 09:12:28;;;;;;;3.30;1.97;;;8.00;99.90;;;8.86;100.00;96125.78;4991402;28;20986;-76
2024/03/29 09:14:58;;;;;;;2.90;2.13;;;8.10;99.90;;;8.91;100.00;96122.50;4995363;28;20961;-80
2024/03/29 09:17:25;;;;;;;4.30;2.30;;;8.20;99.90;;;8.98;100.00;96138.84;4991656;28;20470;-76
2024/03/29 09:19:52;;;;;;;5.40;3.00;;;8.20;99.90;;;9.02;100.00;96124.34;4993258;28;20499;-75
2024/03/29 09:22:20;;;;;;;2.43;1.50;;;8.20;99.90;;;9.08;100.00;96133.88;4996216;28;20475;-75
2024/03/29 09:24:48;;;;;;;4.70;1.53;;;8.30;99.90;;;9.12;100.00;96137.63;4993472;28;20476;-75
2024/03/29 09:27:15;;;;;;;3.37;1.30;;;8.40;99.90;;;9.18;100.00;96141.13;4988646;28;20840;-76
2024/03/29 09:29:43;;;;;;;1.60;1.50;;;8.40;99.90;;;9.22;100.00;96144.88;4986898;28;20481;-76
2024/03/29 09:32:12;;;;;;;4.63;1.70;;;8.40;99.90;;;9.25;100.00;96154.88;5000738;28;20470;-76
2024/03/29 09:34:39;;;;;;;1.60;1.50;;;8.40;99.90;;;9.29;100.00;96145.56;5006495;28;20701;-77
2024/03/29 09:37:06;;;;;;;3.63;1.40;;;8.50;99.90;;;9.33;100.00;96138.88;4995244;28;20482;-79
2024/03/29 09:39:34;;;;;;;2.80;2.37;;;8.60;99.90;;;9.39;100.00;96153.63;4996173;28;20494;-76
2024/03/29 09:42:04;;;;;;;2.67;2.20;;;8.60;99.90;;;9.41;100.00;96149.75;4997411;28;20479;-74
2024/03/29 09:44:36;;;;;;;2.40;1.40;;;8.70;99.90;;;9.47;100.00;96154.09;5004107;28;20481;-75
2024/03/29 09:47:05;;;;;;;3.87;1.70;;;8.70;99.90;;;9.50;100.00;96140.59;4999156;28;20836;-75
2024/03/29 09:49:35;;;;;;;2.80;2.00;;;8.80;99.90;;;9.57;100.00;96156.13;5014199;28;20540;-75
2024/03/29 09:52:03;;;;;;;4.10;2.00;;;8.80;99.90;;;9.61;100.00;96160.66;5003540;28;20475;-75
2024/03/29 09:54:32;;;;;;;3.30;2.23;;;8.90;99.90;;;9.64;100.00;96158.63;5006211;28;20473;-75
2024/03/29 09:56:59;;;;;;;6.00;2.30;;;8.90;99.90;;;9.68;100.00;96151.94;5001752;28;20471;-75
2024/03/29 09:59:27;;;;;;;3.00;2.00;;;8.90;99.90;;;9.72;100.00;96160.91;5003558;28;20499;-76
2024/03/29 10:01:56;;;;;;;5.00;2.43;;;9.00;99.90;;;9.76;100.00;96168.03;5002270;28;20471;-75
2024/03/29 10:04:26;;;;;;;3.23;2.67;;;9.00;99.90;;;9.81;100.00;96154.31;5003097;28;20462;-75
2024/03/29 10:06:56;;;;;;;5.23;1.90;;;9.00;99.90;;;9.85;100.00;96148.41;4999299;28;20852;-75
2024/03/29 10:09:29;;;;;;;3.53;2.00;;;9.10;99.90;;;9.90;100.00;96142.47;5014908;28;20854;-75
2024/03/29 10:11:56;;;;;;;4.37;2.23;;;9.20;99.90;;;9.96;100.00;96136.38;5003949;28;21038;-76
2024/03/29 10:14:24;;;;;;;4.40;1.67;;;9.20;99.90;;;10.02;100.00;96135.44;5002290;28;20464;-75
2024/03/29 10:16:52;;;;;;;3.00;1.73;;;9.30;99.90;;;10.06;100.00;96129.53;5000073;28;21189;-75
2024/03/29 10:19:22;;;;;;;5.60;1.47;;;9.40;99.90;;;10.11;100.00;96126.22;4999993;28;20497;-75
2024/03/29 10:21:49;;;;;;;5.33;2.00;;;9.50;99.90;;;10.20;100.00;96116.22;5000982;28;20546;-75
2024/03/29 10:24:18;;;;;;;5.40;2.37;;;9.50;99.90;;;10.24;100.00;96110.28;4997514;28;20472;-76
2024/03/29 10:26:47;;;;;;;4.13;1.93;;;9.60;99.90;;;10.31;100.00;96108.34;5000902;28;20469;-75
2024/03/29 10:29:15;;;;;;;3.13;1.70;;;9.70;99.90;;;10.39;100.00;96100.13;5011383;28;20821;-76
2024/03/29 10:31:42;;;;;;;4.40;1.50;;;9.80;99.90;;;10.47;100.00;96099.78;4995031;28;20493;-75
2024/03/29 10:34:10;;;;;;;116.50;60.67;;;9.90;99.90;;;10.54;100.00;96100.44;4994790;28;22618;-76
2024/03/29 10:36:39;;;;;;;7.90;4.00;;;9.90;99.90;;;10.62;100.00;96101.06;4994944;28;20484;-75
2024/03/29 10:39:12;;;;;;;2.20;1.80;;;10.00;99.90;;;10.70;100.00;96100.66;4996307;28;20470;-76
2024/03/29 10:41:43;;;;;;;4.50;1.37;;;10.10;99.90;;;10.75;100.00;96108.63;4999287;28;20480;-76
2024/03/29 10:44:12;;;;;;;5.10;2.13;;;10.20;99.90;;;10.80;100.00;96121.75;5017111;28;20489;-76
2024/03/29 10:46:41;;;;;;;2.10;1.20;;;10.20;99.90;;;10.83;100.00;96131.78;4998397;28;20467;-76
2024/03/29 10:49:11;;;;;;;2.73;1.40;;;10.20;99.90;;;10.81;100.00;96157.34;4999600;28;21044;-76
2024/03/29 10:51:40;;;;;;;2.37;1.50;;;10.10;99.90;;;10.81;100.00;96154.72;5002236;28;20478;-76
2024/03/29 10:54:10;;;;;;;3.73;1.30;;;10.10;99.90;;;10.84;100.00;96165.50;5002636;28;20471;-76
2024/03/29 10:56:39;;;;;;;4.03;1.20;;;10.10;99.90;;;10.87;100.00;96174.69;5003688;28;20469;-76
2024/03/29 10:59:20;;;;;;;3.90;1.73;;;10.20;99.90;;;10.90;100.00;96185.47;5002459;28;20477;-76
2024/03/29 11:02:01;;;;;;;2.00;1.23;;;10.30;99.90;;;10.90;100.00;96200.38;5001863;28;20470;-76
2024/03/29 11:04:37;;;;;;;2.93;1.40;;;10.30;99.90;;;10.88;100.00;96202.44;5018015;28;20469;-76
2024/03/29 11:07:14;;;;;;;3.10;1.33;;;10.20;99.90;;;10.87;100.00;96187.78;4997873;28;20486;-76
2024/03/29 11:09:42;;;;;;;1.10;0.97;;;10.30;99.90;;;10.87;100.00;96177.31;5014039;28;20474;-76
2024/03/29 11:12:14;;;;;;;2.53;1.50;;;10.30;99.90;;;10.91;100.00;96178.44;5000612;28;20473;-76
2024/03/29 11:14:47;;;;;;;2.63;1.20;;;10.30;99.90;;;10.94;100.00;96176.16;5004556;28;20464;-75
2024/03/29 11:17:15;;;;;;;1.67;1.53;;;10.40;99.90;;;10.98;100.00;96171.22;5000052;28;20520;-76
2024/03/29 11:19:44;;;;;;;2.07;1.70;;;10.40;99.90;;;11.01;100.00;96165.53;5002289;28;20498;-76
2024/03/29 11:22:12;;;;;;;2.53;1.30;;;10.40;99.90;;;11.04;100.00;96157.22;4999387;28;20470;-76
2024/03/29 11:24:40;;;;;;;1.10;1.00;;;10.40;99.90;;;11.03;100.00;96176.56;4999372;28;20471;-76
2024/03/29 11:27:11;;;;;;;4.20;1.30;;;10.40;99.90;;;11.06;100.00;96189.16;5003447;28;20470;-76
2024/03/29 11:29:45;;;;;;;1.37;1.13;;;10.30;99.90;;;11.05;100.00;96174.50;4999426;28;20465;-76
2024/03/29 11:32:13;;;;;;;5.33;1.70;;;10.40;99.90;;;11.08;100.00;96166.19;4998063;28;20466;-76
2024/03/29 11:34:46;;;;;;;3.27;1.33;;;10.40;99.90;;;11.07;100.00;96169.84;5000800;28;20463;-77
2024/03/29 11:37:13;;;;;;;2.13;1.17;;;10.50;99.90;;;11.07;100.00;96169.84;5000824;28;20770;-76
2024/03/29 11:39:41;;;;;;;3.13;1.37;;;10.50;99.90;;;11.04;100.00;96170.28;5016304;28;20482;-76
2024/03/29 11:42:09;;;;;;;3.37;1.10;;;10.40;99.90;;;11.05;100.00;96161.41;4999785;28;20982;-76
2024/03/29 11:44:36;;;;;;;2.27;1.47;;;10.40;99.90;;;11.07;100.00;96159.38;5003389;28;20880;-76
2024/03/29 11:47:10;;;;;;;1.80;1.10;;;10.40;99.90;;;11.05;100.00;96169.28;5002247;28;20478;-76
2024/03/29 11:49:37;;;;;;;4.53;1.53;;;10.50;99.90;;;11.06;100.00;96179.50;5015667;28;20468;-76
2024/03/29 11:52:06;;;;;;;6.43;1.57;;;10.40;99.90;;;11.06;100.00;96199.63;5002999;28;20471;-76
2024/03/29 11:54:40;;;;;;;1.90;1.27;;;10.30;99.90;;;11.03;100.00;96205.34;5017619;28;20856;-76
2024/03/29 11:57:08;;;;;;;2.63;1.20;;;10.30;99.90;;;11.03;100.00;96216.59;5002901;28;20465;-76
2024/03/29 11:59:35;;;;;;;3.10;1.40;;;10.30;99.90;;;11.02;100.00;96209.78;5003575;28;20445;-76
2024/03/29 12:02:06;;;;;;;1.77;1.03;;;10.40;99.90;;;11.01;100.00;96217.84;4997483;28;20477;-76
2024/03/29 12:04:34;;;;;;;1.70;1.23;;;10.30;99.90;;;10.98;100.00;96206.03;5001522;28;20475;-78
2024/03/29 12:07:02;;;;;;;4.60;1.70;;;10.30;99.90;;;10.99;100.00;96206.84;5001826;28;20478;-76
2024/03/29 12:09:31;;;;;;;3.23;1.33;;;10.40;99.90;;;10.97;100.00;96203.63;5002191;28;20502;-76
2024/03/29 12:12:03;;;;;;;1.83;1.27;;;10.30;99.90;;;10.97;100.00;96216.72;5008858;28;20479;-76
2024/03/29 12:14:35;;;;;;;2.60;1.37;;;10.30;99.90;;;10.96;100.00;96221.19;5015630;28;20474;-76
2024/03/29 12:17:10;;;;;;;2.70;1.43;;;10.20;99.90;;;10.96;100.00;96228.22;4999659;28;20477;-76
2024/03/29 12:19:38;;;;;;;2.07;1.20;;;10.30;99.90;;;10.95;100.00;96234.47;5003011;28;20489;-76